createdAt,value
2019-02-06T00:02:57.440Z,85.28
2019-02-06T00:06:13.114Z,85.18
2019-02-06T00:09:28.370Z,85.81
2019-02-06T00:12:43.818Z,86.67
2019-02-06T00:15:59.467Z,86.52
2019-02-06T00:19:14.985Z,86.32
2019-02-06T00:22:30.147Z,86.42
2019-02-06T00:25:47.614Z,86.25
2019-02-06T00:29:03.039Z,85.96
2019-02-06T00:32:18.699Z,85.75
2019-02-06T00:35:34.358Z,86.30
2019-02-06T00:38:50.363Z,86.30
2019-02-06T00:42:06.081Z,86.58
2019-02-06T00:45:21.851Z,86.79
2019-02-06T00:48:37.202Z,86.98
2019-02-06T00:51:52.851Z,86.87
2019-02-06T00:55:08.292Z,86.59
2019-02-06T00:58:26.053Z,86.39
2019-02-06T01:01:41.466Z,86.34
2019-02-06T01:04:57.347Z,86.53
2019-02-06T01:08:13.382Z,86.21
2019-02-06T01:11:29.094Z,86.25
2019-02-06T01:14:44.538Z,86.12
2019-02-06T01:17:59.972Z,86.23
2019-02-06T01:21:15.643Z,86.12
2019-02-06T01:24:31.598Z,86.16
2019-02-06T01:27:47.056Z,86.16
2019-02-06T01:31:21.543Z,86.03
2019-02-06T01:34:36.902Z,86.09
2019-02-06T01:37:52.661Z,86.32
2019-02-06T01:41:08.019Z,86.33
2019-02-06T01:44:23.371Z,86.10
2019-02-06T01:47:39.457Z,85.82
2019-02-06T01:50:55.202Z,85.98
2019-02-06T01:54:10.558Z,86.00
2019-02-06T01:57:25.909Z,85.88
2019-02-06T02:00:41.454Z,85.61
2019-02-06T02:03:56.819Z,85.47
2019-02-06T02:07:12.377Z,85.72
2019-02-06T02:10:27.627Z,85.43
2019-02-06T02:13:43.171Z,85.63
2019-02-06T02:16:58.702Z,85.70
2019-02-06T02:20:16.484Z,85.97
2019-02-06T02:23:31.695Z,86.59
2019-02-06T02:26:47.064Z,86.58
2019-02-06T02:30:03.473Z,86.30
2019-02-06T02:33:19.078Z,86.25
2019-02-06T02:36:34.642Z,86.31
2019-02-06T02:39:49.903Z,86.24
2019-02-06T02:43:05.558Z,86.20
2019-02-06T02:46:20.896Z,86.38
2019-02-06T02:49:36.159Z,86.16
2019-02-06T02:52:51.314Z,86.03
2019-02-06T02:56:06.754Z,86.10
2019-02-06T02:59:22.015Z,85.89
2019-02-06T03:02:58.241Z,85.49
2019-02-06T03:06:13.564Z,85.79
2019-02-06T03:09:29.047Z,85.74
2019-02-06T03:12:44.705Z,85.56
2019-02-06T03:16:00.059Z,85.53
2019-02-06T03:19:15.412Z,85.56
2019-02-06T03:22:32.961Z,86.17
2019-02-06T03:25:48.371Z,86.52
2019-02-06T03:29:03.727Z,86.23
2019-02-06T03:32:19.394Z,86.14
2019-02-06T03:35:35.032Z,85.76
2019-02-06T03:38:50.639Z,86.13
2019-02-06T03:42:05.919Z,86.10
2019-02-06T03:45:21.113Z,85.83
2019-02-06T03:48:36.247Z,85.58
2019-02-06T03:51:51.907Z,85.35
2019-02-06T03:55:07.020Z,85.46
2019-02-06T03:58:22.276Z,85.90
2019-02-06T04:01:37.759Z,86.37
2019-02-06T04:05:10.993Z,86.59
2019-02-06T04:08:26.476Z,86.37
2019-02-06T04:11:41.826Z,86.04
2019-02-06T04:14:57.186Z,85.76
2019-02-06T04:18:12.534Z,85.40
2019-02-06T04:21:28.299Z,85.69
2019-02-06T04:24:43.842Z,85.73
2019-02-06T04:27:59.514Z,85.38
2019-02-06T04:31:14.869Z,85.41
2019-02-06T04:34:30.421Z,85.45
2019-02-06T04:37:46.073Z,85.30
2019-02-06T04:41:01.540Z,85.97
2019-02-06T04:44:17.039Z,85.78
2019-02-06T04:47:32.447Z,85.88
2019-02-06T04:50:48.006Z,85.68
2019-02-06T04:54:03.379Z,85.41
2019-02-06T04:57:18.811Z,85.11
2019-02-06T05:00:34.063Z,84.85
2019-02-06T05:03:49.414Z,84.85
2019-02-06T05:07:05.123Z,84.81
2019-02-06T05:10:20.641Z,84.88
2019-02-06T05:13:36.290Z,84.83
2019-02-06T05:16:51.701Z,85.12
2019-02-06T05:20:12.774Z,85.10
2019-02-06T05:23:28.077Z,85.23
2019-02-06T05:26:43.430Z,85.03
2019-02-06T05:29:58.788Z,84.91
2019-02-06T05:33:13.949Z,85.15
2019-02-06T05:36:29.872Z,85.26
2019-02-06T05:39:45.047Z,85.44
2019-02-06T05:43:00.505Z,85.36
2019-02-06T05:46:16.060Z,85.32
2019-02-06T05:49:33.387Z,85.00
2019-02-06T05:52:49.515Z,85.47
2019-02-06T05:56:04.471Z,85.36
2019-02-06T05:59:20.030Z,85.07
2019-02-06T06:02:35.518Z,85.15
2019-02-06T06:05:51.032Z,85.07
2019-02-06T06:09:07.628Z,85.21
2019-02-06T06:12:23.493Z,84.92
2019-02-06T06:15:39.060Z,85.27
2019-02-06T06:18:54.501Z,85.36
2019-02-06T06:22:10.067Z,85.07
2019-02-06T06:25:25.720Z,84.90
2019-02-06T06:28:40.878Z,84.86
2019-02-06T06:31:56.236Z,85.05
2019-02-06T06:35:11.527Z,85.18
2019-02-06T06:38:26.928Z,85.25
2019-02-06T06:41:42.383Z,85.42
2019-02-06T06:44:57.835Z,85.21
2019-02-06T06:48:13.292Z,85.27
2019-02-06T06:51:28.529Z,85.15
2019-02-06T06:54:43.788Z,84.97
2019-02-06T06:57:59.257Z,84.77
2019-02-06T07:01:14.800Z,84.74
2019-02-06T07:04:30.012Z,84.59
2019-02-06T07:07:45.819Z,84.51
2019-02-06T07:11:01.647Z,84.50
2019-02-06T07:14:17.116Z,85.18
2019-02-06T07:17:32.596Z,85.20
2019-02-06T07:20:48.044Z,85.10
2019-02-06T07:24:03.601Z,84.83
2019-02-06T07:27:21.087Z,85.06
2019-02-06T07:30:36.188Z,85.20
2019-02-06T07:33:52.164Z,84.98
2019-02-06T07:37:09.150Z,85.05
2019-02-06T07:40:24.516Z,84.71
2019-02-06T07:43:40.719Z,84.70
2019-02-06T07:46:56.078Z,84.83
2019-02-06T07:50:20.038Z,84.76
2019-02-06T07:53:35.288Z,84.65
2019-02-06T07:56:50.535Z,85.24
2019-02-06T08:00:06.467Z,85.06
2019-02-06T08:03:22.181Z,84.89
2019-02-06T08:06:37.236Z,84.74
2019-02-06T08:09:52.762Z,84.54
2019-02-06T08:13:08.156Z,84.37
2019-02-06T08:16:24.284Z,84.12
2019-02-06T08:19:39.758Z,84.14
2019-02-06T08:22:55.297Z,84.18
2019-02-06T08:26:10.753Z,83.92
2019-02-06T08:29:26.086Z,83.85
2019-02-06T08:32:59.678Z,83.88
2019-02-06T08:36:15.244Z,83.68
2019-02-06T08:39:30.482Z,83.71
2019-02-06T08:42:47.750Z,83.67
2019-02-06T08:46:03.274Z,83.67
2019-02-06T08:49:18.486Z,83.44
2019-02-06T08:52:34.042Z,83.10
2019-02-06T08:55:49.650Z,82.80
2019-02-06T08:59:04.747Z,82.76
2019-02-06T09:02:19.905Z,82.52
2019-02-06T09:05:35.302Z,82.40
2019-02-06T09:08:59.184Z,82.40
2019-02-06T09:12:08.923Z,81.75
2019-02-06T09:15:42.810Z,81.50
2019-02-06T09:18:58.153Z,81.12
2019-02-06T09:22:13.286Z,80.96
2019-02-06T09:25:28.023Z,80.73
2019-02-06T09:28:44.003Z,80.42
2019-02-06T09:31:59.587Z,80.11
2019-02-06T09:35:14.800Z,79.91
2019-02-06T09:38:30.566Z,80.51
2019-02-06T09:41:45.831Z,79.98
2019-02-06T09:45:01.203Z,79.37
2019-02-06T09:48:16.597Z,78.85
2019-02-06T09:51:31.988Z,78.61
2019-02-06T09:54:47.251Z,77.79
2019-02-06T09:58:02.800Z,77.32
2019-02-06T10:01:21.279Z,76.16
2019-02-06T10:04:35.748Z,76.60
2019-02-06T10:07:51.247Z,75.50
2019-02-06T10:11:06.665Z,72.62
2019-02-06T10:14:21.830Z,72.07
2019-02-06T10:17:37.801Z,72.07
2019-02-06T10:20:53.465Z,71.01
2019-02-06T10:24:08.943Z,68.85
2019-02-06T10:27:24.558Z,70.37
2019-02-06T10:30:42.531Z,69.42
2019-02-06T10:33:58.184Z,67.58
2019-02-06T10:37:14.095Z,66.75
2019-02-06T10:40:30.356Z,65.62
2019-02-06T10:43:45.628Z,67.01
2019-02-06T10:47:00.874Z,67.81
2019-02-06T10:50:18.624Z,65.38
2019-02-06T10:53:33.686Z,62.28
2019-02-06T10:56:49.279Z,59.58
2019-02-06T11:00:09.389Z,60.85
2019-02-06T11:03:25.587Z,60.70
2019-02-06T11:06:40.869Z,58.82
2019-02-06T11:09:56.121Z,57.90
2019-02-06T11:13:10.925Z,56.77
2019-02-06T11:16:26.306Z,57.13
2019-02-06T11:19:43.107Z,56.04
2019-02-06T11:22:58.749Z,54.56
2019-02-06T11:26:14.111Z,54.90
2019-02-06T11:29:29.563Z,54.36
2019-02-06T11:32:44.682Z,53.51
2019-02-06T11:36:00.166Z,52.53
2019-02-06T11:39:21.724Z,50.64
2019-02-06T11:42:37.324Z,51.11
2019-02-06T11:45:52.788Z,52.65
2019-02-06T11:49:08.008Z,52.27
2019-02-06T11:52:23.394Z,50.86
2019-02-06T11:55:39.088Z,52.62
2019-02-06T11:58:54.520Z,51.66
2019-02-06T12:02:10.181Z,52.30
2019-02-06T12:05:25.362Z,53.32
2019-02-06T12:08:41.497Z,52.03
2019-02-06T12:11:57.114Z,51.54
2019-02-06T12:15:16.532Z,52.62
2019-02-06T12:18:32.183Z,52.59
2019-02-06T12:21:47.590Z,54.41
2019-02-06T12:25:03.164Z,53.35
2019-02-06T12:28:18.655Z,53.83
2019-02-06T12:31:34.256Z,53.27
2019-02-06T12:34:49.678Z,54.27
2019-02-06T12:38:05.842Z,55.14
2019-02-06T12:41:20.915Z,54.54
2019-02-06T12:44:35.715Z,54.74
2019-02-06T12:47:51.033Z,54.77
2019-02-06T12:51:06.597Z,54.36
2019-02-06T12:54:22.151Z,53.70
2019-02-06T12:57:37.618Z,54.94
2019-02-06T13:00:53.059Z,54.65
2019-02-06T13:04:08.517Z,55.93
2019-02-06T13:07:23.672Z,54.53
2019-02-06T13:10:41.082Z,55.41
2019-02-06T13:13:56.442Z,54.66
2019-02-06T13:17:11.778Z,54.43
2019-02-06T13:20:27.260Z,55.05
2019-02-06T13:23:43.461Z,55.81
2019-02-06T13:26:58.671Z,56.18
2019-02-06T13:30:20.072Z,57.13
2019-02-06T13:33:36.115Z,58.13
2019-02-06T13:36:51.468Z,58.14
2019-02-06T13:40:09.155Z,56.99
2019-02-06T13:43:24.501Z,56.41
2019-02-06T13:46:40.101Z,56.80
2019-02-06T13:49:55.439Z,54.86
2019-02-06T13:53:11.391Z,54.00
2019-02-06T13:56:26.450Z,53.96
2019-02-06T13:59:41.721Z,53.37
2019-02-06T14:02:56.958Z,52.61
2019-02-06T14:06:12.496Z,53.38
2019-02-06T14:09:28.073Z,52.68
2019-02-06T14:12:43.821Z,52.28
2019-02-06T14:15:59.389Z,53.16
2019-02-06T14:19:14.462Z,54.02
2019-02-06T14:22:29.897Z,53.76
2019-02-06T14:26:28.434Z,53.74
2019-02-06T14:30:19.015Z,53.89
2019-02-06T14:33:59.622Z,54.57
2019-02-06T14:37:41.405Z,54.73
2019-02-06T14:41:28.740Z,54.98
2019-02-06T14:45:10.372Z,55.45
2019-02-06T14:49:08.009Z,56.25
2019-02-06T14:52:43.294Z,56.85
2019-02-06T14:56:15.566Z,59.24
2019-02-06T14:59:44.828Z,60.31
2019-02-06T15:03:41.222Z,62.14
2019-02-06T15:07:34.713Z,63.35
2019-02-06T15:11:25.868Z,64.40
2019-02-06T15:15:11.246Z,65.27
2019-02-06T15:18:54.288Z,66.21
2019-02-06T15:22:41.053Z,66.52
2019-02-06T15:26:30.199Z,67.18
2019-02-06T15:30:18.840Z,67.72
2019-02-06T15:33:43.495Z,67.98
2019-02-06T15:37:23.695Z,68.39
2019-02-06T15:41:31.901Z,68.62
2019-02-06T15:45:23.787Z,68.44
2019-02-06T15:49:09.521Z,68.37
2019-02-06T15:52:53.627Z,68.90
2019-02-06T15:56:39.214Z,69.52
2019-02-06T16:00:21.728Z,69.91
2019-02-06T16:04:34.812Z,70.11
2019-02-06T16:08:18.172Z,70.56
2019-02-06T16:11:42.890Z,70.93
2019-02-06T16:15:19.861Z,71.73
2019-02-06T16:19:03.402Z,73.03
2019-02-06T16:23:19.024Z,73.48
2019-02-06T16:27:14.691Z,74.46
2019-02-06T16:31:09.750Z,74.94
2019-02-06T16:35:06.960Z,75.59
2019-02-06T16:38:54.752Z,76.07
2019-02-06T16:42:23.927Z,76.06
2019-02-06T16:46:31.763Z,77.29
2019-02-06T16:50:10.253Z,77.31
2019-02-06T16:53:53.230Z,77.62
2019-02-06T16:57:55.071Z,78.41
2019-02-06T17:01:53.682Z,78.88
2019-02-06T17:05:40.151Z,79.33
2019-02-06T17:09:16.860Z,79.38
2019-02-06T17:12:44.002Z,79.95
2019-02-06T17:16:25.253Z,80.06
2019-02-06T17:20:14.313Z,79.95
2019-02-06T17:24:00.374Z,80.21
2019-02-06T17:28:11.548Z,80.90
2019-02-06T17:32:02.152Z,80.82
2019-02-06T17:35:44.068Z,80.64
2019-02-06T17:39:55.619Z,80.92
2019-02-06T17:43:27.083Z,80.84
2019-02-06T17:47:11.434Z,81.34
2019-02-06T17:50:38.763Z,81.54
2019-02-06T17:54:15.653Z,81.84
2019-02-06T17:57:31.581Z,82.48
2019-02-06T18:01:14.755Z,82.04
2019-02-06T18:04:41.882Z,82.06
2019-02-06T18:07:57.447Z,81.98
2019-02-06T18:11:12.992Z,81.99
2019-02-06T18:14:28.572Z,82.54
2019-02-06T18:17:44.229Z,82.21
2019-02-06T18:20:59.577Z,82.13
2019-02-06T18:24:14.734Z,82.01
2019-02-06T18:27:30.033Z,81.82
2019-02-06T18:30:45.722Z,81.75
2019-02-06T18:34:02.238Z,81.78
2019-02-06T18:37:17.870Z,82.17
2019-02-06T18:40:33.216Z,82.86
2019-02-06T18:43:48.379Z,84.05
2019-02-06T18:47:04.445Z,84.78
2019-02-06T18:50:19.915Z,84.44
2019-02-06T18:53:35.658Z,84.09
2019-02-06T18:57:27.387Z,84.88
2019-02-06T19:01:30.338Z,84.43
2019-02-06T19:04:45.738Z,84.37
2019-02-06T19:08:01.087Z,84.46
2019-02-06T19:11:16.228Z,84.17
2019-02-06T19:14:31.599Z,84.12
2019-02-06T19:17:46.736Z,84.13
2019-02-06T19:21:02.286Z,85.47
2019-02-06T19:24:17.965Z,85.59
2019-02-06T19:27:33.924Z,85.31
2019-02-06T19:30:49.273Z,85.84
2019-02-06T19:34:04.390Z,86.26
2019-02-06T19:37:20.181Z,86.27
2019-02-06T19:40:36.218Z,85.97
2019-02-06T19:43:51.844Z,85.65
2019-02-06T19:47:06.982Z,85.54
2019-02-06T19:50:23.368Z,85.42
2019-02-06T19:53:38.599Z,85.04
2019-02-06T19:56:54.287Z,84.90
2019-02-06T20:00:12.645Z,84.77
2019-02-06T20:03:27.703Z,84.74
2019-02-06T20:06:43.174Z,85.04
2019-02-06T20:09:58.431Z,86.17
2019-02-06T20:13:14.729Z,86.65
2019-02-06T20:16:29.955Z,86.63
2019-02-06T20:19:45.299Z,87.25
2019-02-06T20:23:00.450Z,87.14
2019-02-06T20:26:15.800Z,86.32
2019-02-06T20:29:31.052Z,86.15
2019-02-06T20:32:46.403Z,85.79
2019-02-06T20:36:01.756Z,85.69
2019-02-06T20:39:17.311Z,86.14
2019-02-06T20:42:32.672Z,86.26
2019-02-06T20:45:48.120Z,86.14
2019-02-06T20:49:03.267Z,85.86
2019-02-06T20:52:18.763Z,86.67
2019-02-06T20:55:33.864Z,87.16
2019-02-06T20:58:49.125Z,87.00
2019-02-06T21:02:04.568Z,86.59
2019-02-06T21:05:20.238Z,86.71
2019-02-06T21:08:35.490Z,86.60
2019-02-06T21:11:50.952Z,86.29
2019-02-06T21:15:06.906Z,86.24
2019-02-06T21:18:22.763Z,86.17
2019-02-06T21:21:38.142Z,86.28
2019-02-06T21:24:53.575Z,86.08
2019-02-06T21:28:09.034Z,86.30
2019-02-06T21:31:24.490Z,86.67
2019-02-06T21:34:39.756Z,86.70
2019-02-06T21:37:55.301Z,86.29
2019-02-06T21:41:10.550Z,85.71
2019-02-06T21:44:26.108Z,85.30
2019-02-06T21:47:41.255Z,85.01
2019-02-06T21:50:57.586Z,86.20
2019-02-06T21:54:12.688Z,86.53
2019-02-06T21:57:28.030Z,86.16
2019-02-06T22:00:43.264Z,86.34
2019-02-06T22:03:58.978Z,85.98
2019-02-06T22:07:14.398Z,85.75
2019-02-06T22:10:29.646Z,85.60
2019-02-06T22:13:54.636Z,85.54
2019-02-06T22:17:02.302Z,86.09
2019-02-06T22:20:17.954Z,85.93
2019-02-06T22:23:33.534Z,85.71
2019-02-06T22:26:48.866Z,85.83
2019-02-06T22:30:04.819Z,85.75
2019-02-06T22:33:21.317Z,85.45
2019-02-06T22:36:37.071Z,85.18
2019-02-06T22:39:52.328Z,85.12
2019-02-06T22:43:07.676Z,85.04
2019-02-06T22:46:22.818Z,85.15
2019-02-06T22:49:38.382Z,85.25
2019-02-06T22:52:53.729Z,85.30
2019-02-06T22:56:08.968Z,85.43
2019-02-06T22:59:24.341Z,85.43
2019-02-06T23:02:39.467Z,84.83
2019-02-06T23:05:55.149Z,85.06
2019-02-06T23:09:10.694Z,85.40
2019-02-06T23:12:27.420Z,85.10
2019-02-06T23:15:42.800Z,85.06
2019-02-06T23:18:58.096Z,85.13
2019-02-06T23:22:13.445Z,85.29
2019-02-06T23:25:29.006Z,85.19
2019-02-06T23:28:44.265Z,85.33
2019-02-06T23:31:59.612Z,85.94
2019-02-06T23:35:15.259Z,85.86
2019-02-06T23:38:30.732Z,86.31
2019-02-06T23:41:45.971Z,86.25
2019-02-06T23:45:01.640Z,86.50
2019-02-06T23:48:17.089Z,86.45
2019-02-06T23:51:32.546Z,86.05
2019-02-06T23:54:48.000Z,86.04
2019-02-06T23:58:03.156Z,85.73
